createdAt,value
2022-10-13T00:00:32.604Z,93.86
2022-10-13T00:05:42.527Z,94.48
2022-10-13T00:10:47.607Z,94.39
2022-10-13T00:16:08.521Z,94.43
2022-10-13T00:26:48.429Z,95.72
2022-10-13T00:32:00.959Z,96.23
2022-10-13T00:37:06.206Z,95.95
2022-10-13T00:42:16.833Z,96.51
2022-10-13T00:47:29.007Z,97.17
2022-10-13T00:52:46.355Z,96.87
2022-10-13T00:58:12.045Z,96.63
2022-10-13T01:03:42.328Z,96.57
2022-10-13T01:08:48.650Z,97.49
2022-10-13T01:14:09.704Z,97.23
2022-10-13T01:19:46.655Z,98.41
2022-10-13T01:25:07.488Z,99.00
2022-10-13T01:30:27.559Z,98.16
2022-10-13T01:35:55.658Z,98.13
2022-10-13T01:41:07.149Z,98.40
2022-10-13T01:46:26.256Z,98.79
2022-10-13T01:51:52.288Z,98.97
2022-10-13T01:57:02.152Z,98.83
2022-10-13T02:02:48.793Z,100.00
2022-10-13T02:08:10.756Z,99.92
2022-10-13T02:13:25.683Z,100.00
2022-10-13T02:18:50.521Z,100.00
2022-10-13T02:24:07.320Z,100.00
2022-10-13T02:29:17.361Z,100.00
2022-10-13T02:34:29.072Z,100.00
2022-10-13T02:39:55.295Z,100.00
2022-10-13T02:45:05.591Z,100.00
2022-10-13T02:50:14.615Z,100.00
2022-10-13T02:55:24.672Z,100.00
2022-10-13T03:00:35.347Z,100.00
2022-10-13T03:05:58.132Z,100.00
2022-10-13T03:11:05.775Z,100.00
2022-10-13T03:16:25.950Z,100.00
2022-10-13T03:21:58.331Z,100.00
2022-10-13T03:27:24.983Z,100.00
2022-10-13T03:32:44.389Z,100.00
2022-10-13T03:37:59.696Z,100.00
2022-10-13T03:43:11.626Z,100.00
2022-10-13T03:48:22.993Z,100.00
2022-10-13T03:54:01.893Z,100.00
2022-10-13T03:59:24.902Z,100.00
2022-10-13T04:04:35.197Z,100.00
2022-10-13T04:09:56.871Z,100.00
2022-10-13T04:15:07.301Z,100.00
2022-10-13T04:20:30.944Z,100.00
2022-10-13T04:25:57.880Z,100.00
2022-10-13T04:31:21.468Z,100.00
2022-10-13T04:36:34.537Z,100.00
2022-10-13T04:41:46.075Z,100.00
2022-10-13T04:46:53.528Z,100.00
2022-10-13T04:52:13.324Z,100.00
2022-10-13T05:03:08.996Z,100.00
2022-10-13T05:08:18.623Z,100.00
2022-10-13T05:13:34.279Z,100.00
2022-10-13T05:18:43.493Z,100.00
2022-10-13T05:24:00.534Z,100.00
2022-10-13T05:29:30.130Z,100.00
2022-10-13T05:34:36.651Z,100.00
2022-10-13T05:39:43.732Z,100.00
2022-10-13T05:45:04.683Z,100.00
2022-10-13T05:56:15.021Z,100.00
2022-10-13T06:01:30.147Z,100.00
2022-10-13T06:06:43.925Z,100.00
2022-10-13T06:11:53.462Z,100.00
2022-10-13T06:17:05.489Z,100.00
2022-10-13T06:22:13.503Z,100.00
2022-10-13T06:27:31.593Z,100.00
2022-10-13T06:32:38.089Z,100.00
2022-10-13T06:37:54.513Z,100.00
2022-10-13T06:43:07.160Z,100.00
2022-10-13T06:48:22.194Z,100.00
2022-10-13T06:53:36.978Z,100.00
2022-10-13T06:58:51.855Z,100.00
2022-10-13T07:04:01.529Z,100.00
2022-10-13T07:09:09.588Z,100.00
2022-10-13T07:14:21.697Z,100.00
2022-10-13T07:19:50.129Z,100.00
2022-10-13T07:25:00.161Z,99.49
2022-10-13T07:30:18.392Z,98.35
2022-10-13T07:35:34.586Z,97.89
2022-10-13T07:41:02.729Z,96.21
2022-10-13T07:46:28.021Z,95.56
2022-10-13T07:51:43.456Z,93.36
2022-10-13T07:56:53.069Z,93.12
2022-10-13T08:02:05.160Z,92.73
2022-10-13T08:07:18.470Z,92.12
2022-10-13T08:12:34.346Z,91.14
2022-10-13T08:17:51.685Z,89.79
2022-10-13T08:23:14.994Z,89.30
2022-10-13T08:28:22.698Z,88.41
2022-10-13T08:33:36.840Z,87.83
2022-10-13T08:39:04.218Z,86.49
2022-10-13T08:45:02.612Z,86.04
2022-10-13T08:50:14.374Z,85.31
2022-10-13T08:55:31.984Z,84.99
2022-10-13T09:00:40.912Z,83.92
2022-10-13T09:06:04.428Z,83.72
2022-10-13T09:11:19.449Z,83.40
2022-10-13T09:16:31.404Z,83.16
2022-10-13T09:21:37.857Z,82.52
2022-10-13T09:27:20.572Z,81.96
2022-10-13T09:32:30.584Z,81.69
2022-10-13T09:37:38.609Z,81.50
2022-10-13T09:42:59.533Z,80.76
2022-10-13T09:48:12.695Z,80.75
2022-10-13T09:53:34.356Z,80.54
2022-10-13T09:58:59.652Z,79.70
2022-10-13T10:04:10.524Z,79.24
2022-10-13T10:09:40.508Z,78.49
2022-10-13T10:15:14.423Z,78.25
2022-10-13T10:21:00.632Z,78.31
2022-10-13T10:26:32.738Z,78.78
2022-10-13T10:31:55.507Z,78.16
2022-10-13T10:37:19.695Z,77.78
2022-10-13T10:42:55.943Z,76.69
2022-10-13T10:48:13.419Z,75.94
2022-10-13T10:53:38.826Z,75.98
2022-10-13T10:58:59.380Z,74.84
2022-10-13T11:04:56.895Z,74.11
2022-10-13T11:10:36.906Z,73.25
2022-10-13T11:16:05.074Z,71.86
2022-10-13T11:21:24.399Z,71.07
2022-10-13T11:26:44.864Z,71.43
2022-10-13T11:31:56.177Z,71.64
2022-10-13T11:37:21.361Z,71.07
2022-10-13T11:43:17.558Z,71.04
2022-10-13T11:49:08.934Z,70.56
2022-10-13T11:54:58.789Z,72.14
2022-10-13T12:00:32.208Z,70.16
2022-10-13T12:06:05.829Z,68.05
2022-10-13T12:11:31.255Z,67.97
2022-10-13T12:16:58.429Z,67.39
2022-10-13T12:22:05.392Z,67.93
2022-10-13T12:27:27.180Z,66.95
2022-10-13T12:32:50.101Z,66.00
2022-10-13T12:38:04.918Z,66.24
2022-10-13T12:43:30.768Z,64.56
2022-10-13T12:48:39.599Z,64.46
2022-10-13T12:53:47.146Z,65.16
2022-10-13T12:59:01.442Z,64.75
2022-10-13T13:04:22.649Z,64.38
2022-10-13T13:09:30.642Z,64.74
2022-10-13T13:14:53.019Z,65.29
2022-10-13T13:19:58.779Z,64.72
2022-10-13T13:25:07.738Z,65.14
2022-10-13T13:30:33.004Z,65.04
2022-10-13T13:35:48.273Z,63.86
2022-10-13T13:47:01.165Z,63.55
2022-10-13T13:52:36.779Z,61.59
2022-10-13T13:57:46.441Z,62.04
2022-10-13T14:03:10.703Z,62.15
2022-10-13T14:08:17.067Z,61.69
2022-10-13T14:13:36.742Z,60.90
2022-10-13T14:18:54.611Z,61.68
2022-10-13T14:24:10.685Z,61.58
2022-10-13T14:29:37.035Z,61.97
2022-10-13T14:34:51.719Z,62.09
2022-10-13T14:40:14.456Z,62.53
2022-10-13T14:45:47.328Z,63.33
2022-10-13T14:51:07.160Z,63.26
2022-10-13T14:56:38.484Z,63.81
2022-10-13T15:01:47.070Z,63.83
2022-10-13T15:07:06.495Z,64.25
2022-10-13T15:12:24.175Z,64.42
2022-10-13T15:17:36.088Z,65.17
2022-10-13T15:22:56.947Z,66.49
2022-10-13T15:28:17.251Z,66.45
2022-10-13T15:33:29.396Z,66.84
2022-10-13T15:38:41.023Z,66.95
2022-10-13T15:43:51.536Z,67.61
2022-10-13T15:49:09.647Z,68.01
2022-10-13T15:54:24.089Z,68.17
2022-10-13T15:59:30.715Z,68.54
2022-10-13T16:04:39.983Z,68.74
2022-10-13T16:09:55.201Z,70.42
2022-10-13T16:15:00.520Z,69.82
2022-10-13T16:20:07.513Z,70.21
2022-10-13T16:25:31.725Z,71.23
2022-10-13T16:30:44.349Z,71.40
2022-10-13T16:35:49.418Z,71.41
2022-10-13T16:41:09.193Z,71.89
2022-10-13T16:46:23.831Z,71.29
2022-10-13T16:51:29.648Z,71.20
2022-10-13T16:56:35.650Z,72.16
2022-10-13T17:01:46.838Z,72.74
2022-10-13T17:07:08.619Z,73.90
2022-10-13T17:12:31.139Z,73.74
2022-10-13T17:17:46.020Z,74.14
2022-10-13T17:23:00.611Z,73.94
2022-10-13T17:28:11.210Z,74.20
2022-10-13T17:39:16.480Z,74.27
2022-10-13T17:50:12.342Z,74.38
2022-10-13T17:55:21.616Z,74.60
2022-10-13T18:00:30.058Z,75.04
2022-10-13T18:05:37.268Z,74.91
2022-10-13T18:11:07.475Z,75.32
2022-10-13T18:16:17.941Z,75.06
2022-10-13T18:21:40.094Z,75.14
2022-10-13T18:32:28.524Z,75.98
2022-10-13T18:37:58.454Z,76.20
2022-10-13T18:43:12.333Z,76.11
2022-10-13T18:48:34.552Z,76.76
2022-10-13T18:53:39.336Z,76.48
2022-10-13T19:04:23.715Z,77.13
2022-10-13T19:09:51.692Z,77.48
2022-10-13T19:15:09.240Z,77.05
2022-10-13T19:20:21.782Z,77.31
2022-10-13T19:25:35.976Z,78.18
2022-10-13T19:30:44.135Z,78.07
2022-10-13T19:35:55.176Z,78.37
2022-10-13T19:41:08.572Z,78.32
2022-10-13T19:46:24.654Z,78.23
2022-10-13T19:51:33.862Z,78.66
2022-10-13T19:56:56.232Z,79.28
2022-10-13T20:02:11.518Z,79.83
2022-10-13T20:07:31.558Z,79.95
2022-10-13T20:13:05.312Z,80.67
2022-10-13T20:18:10.547Z,80.92
2022-10-13T20:23:20.203Z,81.47
2022-10-13T20:28:45.172Z,82.14
2022-10-13T20:34:01.419Z,82.73
2022-10-13T20:39:23.894Z,84.16
2022-10-13T20:44:52.058Z,84.12
2022-10-13T20:50:04.007Z,84.84
2022-10-13T20:55:17.829Z,85.13
2022-10-13T21:00:24.174Z,85.10
2022-10-13T21:05:44.797Z,85.86
2022-10-13T21:10:57.294Z,86.66
2022-10-13T21:16:16.595Z,86.69
2022-10-13T21:21:27.144Z,86.68
2022-10-13T21:26:38.649Z,86.76
2022-10-13T21:31:48.720Z,87.19
2022-10-13T21:36:55.762Z,87.47
2022-10-13T21:42:24.078Z,88.24
2022-10-13T21:47:53.433Z,88.82
2022-10-13T21:53:15.650Z,89.16
2022-10-13T21:58:36.609Z,88.28
2022-10-13T22:03:54.583Z,89.26
2022-10-13T22:09:10.135Z,89.33
2022-10-13T22:14:16.669Z,89.41
2022-10-13T22:24:55.342Z,90.78
2022-10-13T22:30:11.054Z,90.69
2022-10-13T22:35:21.991Z,90.82
2022-10-13T22:40:27.686Z,91.77
2022-10-13T22:45:42.439Z,91.63
2022-10-13T22:50:51.839Z,91.77
2022-10-13T22:56:11.279Z,91.79
2022-10-13T23:01:32.960Z,91.56
2022-10-13T23:06:38.694Z,91.54
2022-10-13T23:12:01.672Z,92.70
2022-10-13T23:17:08.502Z,92.82
2022-10-13T23:22:17.540Z,92.59
2022-10-13T23:27:32.050Z,92.42
2022-10-13T23:32:43.624Z,92.69
2022-10-13T23:37:58.212Z,93.07
2022-10-13T23:43:09.907Z,93.11
2022-10-13T23:48:24.269Z,94.01
2022-10-13T23:53:39.070Z,94.07
2022-10-13T23:58:59.361Z,93.85
